createdAt,value
2022-09-18T00:01:11.496Z,306.47
2022-09-18T00:04:01.749Z,292.60
2022-09-18T00:06:50.991Z,311.50
2022-09-18T00:09:38.883Z,291.87
2022-09-18T00:12:26.834Z,301.33
2022-09-18T00:15:14.732Z,295.97
2022-09-18T00:18:02.724Z,302.90
2022-09-18T00:20:50.629Z,305.53
2022-09-18T00:23:40.446Z,324.37
2022-09-18T00:26:29.046Z,317.40
2022-09-18T00:29:18.160Z,305.57
2022-09-18T00:32:06.343Z,311.77
2022-09-18T00:34:54.220Z,313.00
2022-09-18T00:37:42.131Z,318.37
2022-09-18T00:40:31.815Z,304.47
2022-09-18T00:43:21.299Z,299.87
2022-09-18T00:46:17.886Z,277.30
2022-09-18T00:49:12.593Z,291.77
2022-09-18T00:52:01.960Z,301.50
2022-09-18T00:54:53.710Z,297.20
2022-09-18T00:57:47.838Z,300.23
2022-09-18T01:00:39.414Z,295.73
2022-09-18T01:03:27.392Z,279.13
2022-09-18T01:06:17.329Z,302.77
2022-09-18T01:09:11.278Z,311.77
2022-09-18T01:12:05.404Z,293.23
2022-09-18T01:15:02.733Z,288.80
2022-09-18T01:18:01.081Z,288.77
2022-09-18T01:21:00.406Z,293.67
2022-09-18T01:24:19.694Z,292.10
2022-09-18T01:27:11.573Z,281.97
2022-09-18T01:30:05.657Z,278.03
2022-09-18T01:32:57.756Z,288.00
2022-09-18T01:35:50.757Z,295.77
2022-09-18T01:38:43.557Z,290.43
2022-09-18T01:41:32.990Z,277.77
2022-09-18T01:44:26.261Z,301.50
2022-09-18T01:47:18.908Z,279.57
2022-09-18T01:50:10.204Z,295.07
2022-09-18T01:53:05.189Z,298.13
2022-09-18T01:55:57.555Z,288.90
2022-09-18T01:58:49.363Z,287.37
2022-09-18T02:01:43.293Z,276.10
2022-09-18T02:04:36.935Z,298.10
2022-09-18T02:07:31.116Z,291.00
2022-09-18T02:10:23.084Z,264.60
2022-09-18T02:13:14.737Z,273.03
2022-09-18T02:16:08.415Z,291.37
2022-09-18T02:18:59.948Z,291.53
2022-09-18T02:21:52.613Z,302.17
2022-09-18T02:24:44.147Z,300.83
2022-09-18T02:27:37.483Z,300.30
2022-09-18T02:30:28.740Z,295.60
2022-09-18T02:33:28.628Z,288.93
2022-09-18T02:36:39.853Z,293.03
2022-09-18T02:39:42.172Z,285.47
2022-09-18T02:42:42.918Z,278.67
2022-09-18T02:45:37.449Z,290.20
2022-09-18T02:48:47.720Z,287.00
2022-09-18T02:51:46.776Z,281.10
2022-09-18T02:54:42.895Z,288.20
2022-09-18T02:57:36.442Z,291.87
2022-09-18T03:00:29.693Z,292.27
2022-09-18T03:03:21.049Z,317.43
2022-09-18T03:06:16.174Z,294.53
2022-09-18T03:09:04.455Z,310.10
2022-09-18T03:11:53.945Z,304.53
2022-09-18T03:14:42.481Z,290.80
2022-09-18T03:17:30.466Z,301.97
2022-09-18T03:20:18.542Z,308.00
2022-09-18T03:23:06.471Z,318.73
2022-09-18T03:25:54.434Z,288.87
2022-09-18T03:28:44.184Z,301.23
2022-09-18T03:31:33.936Z,286.37
2022-09-18T03:34:23.003Z,285.53
2022-09-18T03:37:11.496Z,308.50
2022-09-18T03:40:00.018Z,324.60
2022-09-18T03:42:47.960Z,287.50
2022-09-18T03:45:37.289Z,299.03
2022-09-18T03:48:25.401Z,302.80
2022-09-18T03:51:13.987Z,293.80
2022-09-18T03:54:02.210Z,313.50
2022-09-18T03:57:01.568Z,298.07
2022-09-18T03:59:59.675Z,313.40
2022-09-18T04:03:09.900Z,282.33
2022-09-18T04:06:26.568Z,288.83
2022-09-18T04:09:33.205Z,302.27
2022-09-18T04:12:21.379Z,304.47
2022-09-18T04:15:19.045Z,301.93
2022-09-18T04:18:09.818Z,304.00
2022-09-18T04:20:57.750Z,282.53
2022-09-18T04:23:45.692Z,300.20
2022-09-18T04:26:35.247Z,313.13
2022-09-18T04:29:23.236Z,327.20
2022-09-18T04:32:11.886Z,303.13
2022-09-18T04:35:01.194Z,309.03
2022-09-18T04:37:49.481Z,312.40
2022-09-18T04:40:37.532Z,314.90
2022-09-18T04:43:26.592Z,319.60
2022-09-18T04:46:14.977Z,308.93
2022-09-18T04:49:03.032Z,330.87
2022-09-18T04:51:52.860Z,320.37
2022-09-18T04:54:40.804Z,330.60
2022-09-18T04:57:30.036Z,317.67
2022-09-18T05:00:18.420Z,311.93
2022-09-18T05:03:06.610Z,319.13
2022-09-18T05:05:57.272Z,301.20
2022-09-18T05:08:46.835Z,306.33
2022-09-18T05:11:34.884Z,308.90
2022-09-18T05:14:22.849Z,312.63
2022-09-18T05:17:14.129Z,324.80
2022-09-18T05:20:19.419Z,311.93
2022-09-18T05:23:07.832Z,306.63
2022-09-18T05:25:58.859Z,312.57
2022-09-18T05:28:49.624Z,316.80
2022-09-18T05:31:37.724Z,296.47
2022-09-18T05:34:25.774Z,325.60
2022-09-18T05:37:13.894Z,321.10
2022-09-18T05:40:02.939Z,302.40
2022-09-18T05:42:55.285Z,293.97
2022-09-18T05:45:43.610Z,317.13
2022-09-18T05:48:39.267Z,307.57
2022-09-18T05:51:28.041Z,319.17
2022-09-18T05:54:15.977Z,311.47
2022-09-18T05:57:08.493Z,298.20
2022-09-18T05:59:57.708Z,319.17
2022-09-18T06:02:53.791Z,314.83
2022-09-18T06:05:42.650Z,320.00
2022-09-18T06:08:35.039Z,315.30
2022-09-18T06:11:24.554Z,302.57
2022-09-18T06:14:12.418Z,299.03
2022-09-18T06:17:03.064Z,317.93
2022-09-18T06:19:51.114Z,315.43
2022-09-18T06:22:39.109Z,319.00
2022-09-18T06:25:30.584Z,324.50
2022-09-18T06:28:18.833Z,338.43
2022-09-18T06:31:06.891Z,324.83
2022-09-18T06:34:09.810Z,322.07
2022-09-18T06:36:57.753Z,329.03
2022-09-18T06:39:50.381Z,312.10
2022-09-18T06:43:04.580Z,322.30
2022-09-18T06:46:18.886Z,311.42
2022-09-18T06:49:09.891Z,332.13
2022-09-18T06:52:04.263Z,328.87
2022-09-18T06:54:54.039Z,324.92
2022-09-18T06:57:55.120Z,322.52
2022-09-18T07:00:43.113Z,333.73
2022-09-18T07:03:31.201Z,329.35
2022-09-18T07:06:46.601Z,339.30
2022-09-18T07:09:35.704Z,325.95
2022-09-18T07:12:28.299Z,334.92
2022-09-18T07:15:17.870Z,334.65
2022-09-18T07:18:07.820Z,344.15
2022-09-18T07:20:55.834Z,348.38
2022-09-18T07:23:55.218Z,342.92
2022-09-18T07:26:43.217Z,325.83
2022-09-18T07:29:32.668Z,342.60
2022-09-18T07:32:22.458Z,350.42
2022-09-18T07:35:11.276Z,331.60
2022-09-18T07:37:59.863Z,365.77
2022-09-18T07:41:05.188Z,327.75
2022-09-18T07:43:54.799Z,336.40
2022-09-18T07:46:42.917Z,317.40
2022-09-18T07:49:32.836Z,330.42
2022-09-18T07:52:21.244Z,343.60
2022-09-18T07:55:12.450Z,334.38
2022-09-18T07:58:04.277Z,322.38
2022-09-18T08:01:10.629Z,337.55
2022-09-18T08:04:06.311Z,338.42
2022-09-18T08:07:03.359Z,328.15
2022-09-18T08:10:11.830Z,345.05
2022-09-18T08:13:14.694Z,342.75
2022-09-18T08:16:25.816Z,351.58
2022-09-18T08:19:34.177Z,334.73
2022-09-18T08:22:45.931Z,327.77
2022-09-18T08:25:34.825Z,359.30
2022-09-18T08:28:24.875Z,342.35
2022-09-18T08:31:17.725Z,355.73
2022-09-18T08:34:06.093Z,352.95
2022-09-18T08:36:55.584Z,377.30
2022-09-18T08:39:47.474Z,336.90
2022-09-18T08:43:01.991Z,328.42
2022-09-18T08:45:58.511Z,338.55
2022-09-18T08:49:00.732Z,346.27
2022-09-18T08:51:55.695Z,340.70
2022-09-18T08:54:50.531Z,349.98
2022-09-18T08:58:07.574Z,323.80
2022-09-18T09:01:07.766Z,363.10
2022-09-18T09:04:01.837Z,330.65
2022-09-18T09:07:04.464Z,322.00
2022-09-18T09:10:19.560Z,336.25
2022-09-18T09:13:52.721Z,324.38
2022-09-18T09:16:45.717Z,323.65
2022-09-18T09:19:43.110Z,316.77
2022-09-18T09:22:40.570Z,329.73
2022-09-18T09:25:37.455Z,340.90
2022-09-18T09:28:38.004Z,344.15
2022-09-18T09:31:47.963Z,313.45
2022-09-18T09:34:47.817Z,336.38
2022-09-18T09:37:52.096Z,340.85
2022-09-18T09:40:46.887Z,342.15
2022-09-18T09:43:39.970Z,339.85
2022-09-18T09:46:58.109Z,328.85
2022-09-18T09:49:55.909Z,332.52
2022-09-18T09:52:46.528Z,353.23
2022-09-18T09:55:45.322Z,355.08
2022-09-18T09:58:46.095Z,350.00
2022-09-18T10:01:40.582Z,335.73
2022-09-18T10:04:38.950Z,340.25
2022-09-18T10:07:35.750Z,342.52
2022-09-18T10:10:31.705Z,353.65
2022-09-18T10:13:23.321Z,372.90
2022-09-18T10:16:16.842Z,345.85
2022-09-18T10:19:05.570Z,339.83
2022-09-18T10:21:57.350Z,334.42
2022-09-18T10:24:54.714Z,342.13
2022-09-18T10:27:42.554Z,331.15
2022-09-18T10:30:30.816Z,362.50
2022-09-18T10:33:32.203Z,355.08
2022-09-18T10:36:26.088Z,357.17
2022-09-18T10:39:31.604Z,366.48
2022-09-18T10:42:26.685Z,342.95
2022-09-18T10:45:24.620Z,344.63
2022-09-18T10:48:20.916Z,347.23
2022-09-18T10:51:17.516Z,309.15
2022-09-18T10:54:17.303Z,337.33
2022-09-18T10:57:29.104Z,322.85
2022-09-18T11:00:39.819Z,326.00
2022-09-18T11:03:42.682Z,326.60
2022-09-18T11:06:37.269Z,355.35
2022-09-18T11:09:39.412Z,380.98
2022-09-18T11:12:30.653Z,362.27
2022-09-18T11:15:20.627Z,375.20
2022-09-18T11:18:15.756Z,381.42
2022-09-18T11:21:07.580Z,358.67
2022-09-18T11:24:04.015Z,362.58
2022-09-18T11:26:53.727Z,344.98
2022-09-18T11:29:43.209Z,355.10
2022-09-18T11:32:38.104Z,341.77
2022-09-18T11:35:31.037Z,369.08
2022-09-18T11:38:20.121Z,356.25
2022-09-18T11:41:11.196Z,369.50
2022-09-18T11:44:12.036Z,349.98
2022-09-18T11:47:20.847Z,347.90
2022-09-18T11:50:15.380Z,353.38
2022-09-18T11:53:11.757Z,362.25
2022-09-18T11:56:06.221Z,351.05
2022-09-18T11:58:59.188Z,345.38
2022-09-18T12:01:53.676Z,359.48
2022-09-18T12:04:52.934Z,353.63
2022-09-18T12:07:48.215Z,371.35
2022-09-18T12:10:50.152Z,344.65
2022-09-18T12:13:48.384Z,342.17
2022-09-18T12:16:45.956Z,359.20
2022-09-18T12:19:41.363Z,348.20
2022-09-18T12:22:42.528Z,333.48
2022-09-18T12:25:47.705Z,325.23
2022-09-18T12:29:12.060Z,301.77
2022-09-18T12:32:15.554Z,288.40
2022-09-18T12:35:16.059Z,298.02
2022-09-18T12:38:18.095Z,301.65
2022-09-18T12:41:25.539Z,304.80
2022-09-18T12:44:26.967Z,303.00
2022-09-18T12:47:32.139Z,314.38
2022-09-18T12:50:35.300Z,328.25
2022-09-18T12:53:36.460Z,298.90
2022-09-18T12:56:38.689Z,307.13
2022-09-18T12:59:46.371Z,316.17
2022-09-18T13:02:43.374Z,312.92
2022-09-18T13:05:35.701Z,296.65
2022-09-18T13:08:29.498Z,311.73
2022-09-18T13:11:30.030Z,296.08
2022-09-18T13:14:22.381Z,295.13
2022-09-18T13:17:16.873Z,285.92
2022-09-18T13:20:13.506Z,280.77
2022-09-18T13:23:02.263Z,270.83
2022-09-18T13:25:52.946Z,275.05
2022-09-18T13:28:42.231Z,285.90
2022-09-18T13:31:31.801Z,303.95
2022-09-18T13:34:20.651Z,286.73
2022-09-18T13:37:15.585Z,275.88
2022-09-18T13:40:10.674Z,284.75
2022-09-18T13:43:00.851Z,288.27
2022-09-18T13:45:49.242Z,292.33
2022-09-18T13:48:44.515Z,295.73
2022-09-18T13:51:37.208Z,285.08
2022-09-18T13:54:28.909Z,288.67
2022-09-18T13:57:21.835Z,286.17
2022-09-18T14:00:41.091Z,306.00
2022-09-18T14:03:38.622Z,293.27
2022-09-18T14:06:45.717Z,299.55
2022-09-18T14:09:53.097Z,301.58
2022-09-18T14:12:41.105Z,295.00
2022-09-18T14:15:29.029Z,293.10
2022-09-18T14:18:25.304Z,306.88
2022-09-18T14:21:20.330Z,300.65
2022-09-18T14:24:38.217Z,304.08
2022-09-18T14:27:48.672Z,292.85
2022-09-18T14:30:36.669Z,331.95
2022-09-18T14:33:27.559Z,306.40
2022-09-18T14:36:15.651Z,327.73
2022-09-18T14:39:03.644Z,312.92
2022-09-18T14:41:53.294Z,303.33
2022-09-18T14:44:48.615Z,326.48
2022-09-18T14:47:36.682Z,302.38
2022-09-18T14:50:30.680Z,321.52
2022-09-18T14:53:21.632Z,337.75
2022-09-18T14:56:13.511Z,337.42
2022-09-18T14:59:05.670Z,310.40
2022-09-18T15:01:53.806Z,299.95
2022-09-18T15:04:43.114Z,319.83
2022-09-18T15:07:32.555Z,303.67
2022-09-18T15:10:20.662Z,325.05
2022-09-18T15:13:10.290Z,341.52
2022-09-18T15:16:00.713Z,326.52
2022-09-18T15:18:49.383Z,304.33
2022-09-18T15:21:37.361Z,312.33
2022-09-18T15:24:27.785Z,323.45
2022-09-18T15:27:17.546Z,319.35
2022-09-18T15:30:07.983Z,297.85
2022-09-18T15:33:00.686Z,325.23
2022-09-18T15:35:53.376Z,322.65
2022-09-18T15:38:43.840Z,322.38
2022-09-18T15:41:41.250Z,321.30
2022-09-18T15:45:14.805Z,317.42
2022-09-18T15:48:34.150Z,309.60
2022-09-18T15:51:25.330Z,316.20
2022-09-18T15:54:26.430Z,335.23
2022-09-18T15:57:16.686Z,323.95
2022-09-18T16:00:06.427Z,332.02
2022-09-18T16:03:02.448Z,329.77
2022-09-18T16:05:53.917Z,341.05
2022-09-18T16:08:42.233Z,328.65
2022-09-18T16:11:45.630Z,323.13
2022-09-18T16:14:59.528Z,323.13
2022-09-18T16:18:01.912Z,329.55
2022-09-18T16:21:04.811Z,324.40
2022-09-18T16:23:55.071Z,316.98
2022-09-18T16:26:43.217Z,324.00
2022-09-18T16:29:31.121Z,300.98
2022-09-18T16:32:21.627Z,293.35
2022-09-18T16:35:11.031Z,289.35
2022-09-18T16:37:58.948Z,285.55
2022-09-18T16:40:47.929Z,288.73
2022-09-18T16:43:36.605Z,289.73
2022-09-18T16:46:29.346Z,285.63
2022-09-18T16:49:21.295Z,296.65
2022-09-18T16:52:10.131Z,305.95
2022-09-18T16:54:58.175Z,335.27
2022-09-18T16:57:46.104Z,338.23
2022-09-18T17:00:37.543Z,353.92
2022-09-18T17:03:26.894Z,333.17
2022-09-18T17:06:18.888Z,300.77
2022-09-18T17:09:07.554Z,300.73
2022-09-18T17:11:55.513Z,309.10
2022-09-18T17:14:43.381Z,293.35
2022-09-18T17:17:31.250Z,286.35
2022-09-18T17:20:19.300Z,304.42
2022-09-18T17:23:08.553Z,312.35
2022-09-18T17:26:04.651Z,329.65
2022-09-18T17:28:52.549Z,330.00
2022-09-18T17:31:40.548Z,317.40
2022-09-18T17:34:28.881Z,317.35
2022-09-18T17:37:16.764Z,322.95
2022-09-18T17:40:06.992Z,321.73
2022-09-18T17:42:54.942Z,314.30
2022-09-18T17:45:45.972Z,325.77
2022-09-18T17:48:34.627Z,323.27
2022-09-18T17:51:27.710Z,327.35
2022-09-18T17:54:16.864Z,327.77
2022-09-18T17:57:11.268Z,319.42
2022-09-18T17:59:59.232Z,315.20
2022-09-18T18:02:47.117Z,342.98
2022-09-18T18:05:35.093Z,343.63
2022-09-18T18:08:22.970Z,345.98
2022-09-18T18:11:12.607Z,333.58
2022-09-18T18:14:01.942Z,327.67
2022-09-18T18:16:52.550Z,357.63
2022-09-18T18:19:40.713Z,336.83
2022-09-18T18:22:29.085Z,345.33
2022-09-18T18:25:16.985Z,330.90
2022-09-18T18:28:09.398Z,338.02
2022-09-18T18:31:06.157Z,345.08
2022-09-18T18:33:55.805Z,305.17
2022-09-18T18:36:43.714Z,331.20
2022-09-18T18:39:31.615Z,321.02
2022-09-18T18:42:19.507Z,323.98
2022-09-18T18:45:08.759Z,328.58
2022-09-18T18:47:57.958Z,330.67
2022-09-18T18:50:47.103Z,330.83
2022-09-18T18:53:35.911Z,350.35
2022-09-18T18:56:24.747Z,327.67
2022-09-18T18:59:15.139Z,342.35
2022-09-18T19:02:03.266Z,332.83
2022-09-18T19:04:52.924Z,345.53
2022-09-18T19:07:40.821Z,323.53
2022-09-18T19:10:29.395Z,332.30
2022-09-18T19:13:17.312Z,338.70
2022-09-18T19:16:05.626Z,346.92
2022-09-18T19:18:54.469Z,319.02
2022-09-18T19:21:43.879Z,356.35
2022-09-18T19:24:31.842Z,328.95
2022-09-18T19:27:19.881Z,339.50
2022-09-18T19:30:08.821Z,307.83
2022-09-18T19:32:56.989Z,314.98
2022-09-18T19:35:44.901Z,329.83
2022-09-18T19:38:36.936Z,327.27
2022-09-18T19:41:33.313Z,340.50
2022-09-18T19:44:26.781Z,329.17
2022-09-18T19:47:20.039Z,336.45
2022-09-18T19:50:17.564Z,352.25
2022-09-18T19:53:05.657Z,334.75
2022-09-18T19:55:55.387Z,316.77
2022-09-18T19:58:44.883Z,342.73
2022-09-18T20:01:33.048Z,328.00
2022-09-18T20:04:20.954Z,328.55
2022-09-18T20:07:09.544Z,343.70
2022-09-18T20:09:57.443Z,355.98
2022-09-18T20:12:47.693Z,343.73
2022-09-18T20:15:35.993Z,351.53
2022-09-18T20:18:23.927Z,355.27
2022-09-18T20:21:13.816Z,310.90
2022-09-18T20:24:02.035Z,324.57
2022-09-18T20:26:51.051Z,335.53
2022-09-18T20:29:40.386Z,302.27
2022-09-18T20:32:28.334Z,323.63
2022-09-18T20:35:18.271Z,319.67
2022-09-18T20:38:07.614Z,343.20
2022-09-18T20:41:01.941Z,309.30
2022-09-18T20:43:54.833Z,317.90
2022-09-18T20:46:44.710Z,338.70
2022-09-18T20:49:33.655Z,339.67
2022-09-18T20:52:21.537Z,317.33
2022-09-18T20:55:12.447Z,317.77
2022-09-18T20:58:02.331Z,292.57
2022-09-18T21:00:51.054Z,331.00
2022-09-18T21:03:43.351Z,308.50
2022-09-18T21:06:33.565Z,316.03
2022-09-18T21:09:21.719Z,301.93
2022-09-18T21:12:10.026Z,316.03
2022-09-18T21:15:00.378Z,311.70
2022-09-18T21:17:49.993Z,299.80
2022-09-18T21:20:39.231Z,304.47
2022-09-18T21:23:44.743Z,307.23
2022-09-18T21:26:35.600Z,296.87
2022-09-18T21:29:25.964Z,291.60
2022-09-18T21:32:13.884Z,278.50
2022-09-18T21:35:03.754Z,306.17
2022-09-18T21:37:55.057Z,306.50
2022-09-18T21:40:43.453Z,310.33
2022-09-18T21:43:32.076Z,292.27
2022-09-18T21:46:22.292Z,299.07
2022-09-18T21:49:11.212Z,305.73
2022-09-18T21:52:01.106Z,283.30
2022-09-18T21:54:50.380Z,297.73
2022-09-18T21:57:38.769Z,302.10
2022-09-18T22:00:26.722Z,325.63
2022-09-18T22:03:15.929Z,305.60
2022-09-18T22:06:03.936Z,295.43
2022-09-18T22:08:54.409Z,293.23
2022-09-18T22:11:44.700Z,291.90
2022-09-18T22:14:34.345Z,299.47
2022-09-18T22:17:22.271Z,280.33
2022-09-18T22:20:10.970Z,295.27
2022-09-18T22:22:58.867Z,288.20
2022-09-18T22:25:46.984Z,295.07
2022-09-18T22:28:36.227Z,276.23
2022-09-18T22:31:25.600Z,295.37
2022-09-18T22:34:14.385Z,294.40
2022-09-18T22:37:03.033Z,296.57
2022-09-18T22:39:50.950Z,296.97
2022-09-18T22:42:38.836Z,297.17
2022-09-18T22:45:28.104Z,287.67
2022-09-18T22:48:16.049Z,301.73
2022-09-18T22:51:05.923Z,285.67
2022-09-18T22:53:56.029Z,270.53
2022-09-18T22:56:45.656Z,281.00
2022-09-18T22:59:33.569Z,267.73
2022-09-18T23:02:23.370Z,285.23
2022-09-18T23:05:11.311Z,263.27
2022-09-18T23:07:59.166Z,269.63
2022-09-18T23:10:47.023Z,258.10
2022-09-18T23:13:35.355Z,252.30
2022-09-18T23:16:25.961Z,242.13
2022-09-18T23:19:17.551Z,257.73
2022-09-18T23:22:06.334Z,247.60
2022-09-18T23:24:54.207Z,246.50
2022-09-18T23:27:42.246Z,262.03
2022-09-18T23:30:30.130Z,251.93
2022-09-18T23:33:19.078Z,254.20
2022-09-18T23:36:11.193Z,261.57
2022-09-18T23:39:01.012Z,257.60
2022-09-18T23:41:49.926Z,237.30
2022-09-18T23:44:37.864Z,234.90
2022-09-18T23:47:25.790Z,251.77
2022-09-18T23:50:13.755Z,250.47
2022-09-18T23:53:02.954Z,244.67
2022-09-18T23:55:50.831Z,251.30
2022-09-18T23:58:39.678Z,257.33
